sensor_id;sensor_type;location;lat;lon;timestamp;P1;P2;P0
66111;PMS7003;52890;52.490;4.976;2024-01-10T00:00:36;19;26;
66111;PMS7003;52890;52.490;4.976;2024-01-10T00:01:35;22;24;
66111;PMS7003;52890;52.490;4.976;2024-01-10T00:02:35;20;22;
66111;PMS7003;52890;52.490;4.976;2024-01-10T00:03:35;22;20;
66111;PMS7003;52890;52.490;4.976;2024-01-10T00:04:35;20;22;
66111;PMS7003;52890;52.490;4.976;2024-01-10T00:05:35;25;20;
66111;PMS7003;52890;52.490;4.976;2024-01-10T00:06:35;22;25;
66111;PMS7003;52890;52.490;4.976;2024-01-10T00:07:35;21;22;
66111;PMS7003;52890;52.490;4.976;2024-01-10T00:08:35;22;21;
66111;PMS7003;52890;52.490;4.976;2024-01-10T00:09:35;18;25;
66111;PMS7003;52890;52.490;4.976;2024-01-10T00:10:35;21;18;
66111;PMS7003;52890;52.490;4.976;2024-01-10T00:11:35;16;21;
66111;PMS7003;52890;52.490;4.976;2024-01-10T00:12:35;17;18;
66111;PMS7003;52890;52.490;4.976;2024-01-10T00:13:35;19;20;
66111;PMS7003;52890;52.490;4.976;2024-01-10T00:14:35;14;19;
66111;PMS7003;52890;52.490;4.976;2024-01-10T00:15:35;14;16;
66111;PMS7003;52890;52.490;4.976;2024-01-10T00:16:35;15;14;
66111;PMS7003;52890;52.490;4.976;2024-01-10T00:17:35;8;15;
66111;PMS7003;52890;52.490;4.976;2024-01-10T00:18:35;23;8;
66111;PMS7003;52890;52.490;4.976;2024-01-10T00:19:35;25;23;
66111;PMS7003;52890;52.490;4.976;2024-01-10T00:20:35;24;25;
66111;PMS7003;52890;52.490;4.976;2024-01-10T00:21:35;17;24;
66111;PMS7003;52890;52.490;4.976;2024-01-10T00:22:35;21;17;
66111;PMS7003;52890;52.490;4.976;2024-01-10T00:23:35;19;21;
66111;PMS7003;52890;52.490;4.976;2024-01-10T00:24:35;17;19;
66111;PMS7003;52890;52.490;4.976;2024-01-10T00:25:35;16;17;
66111;PMS7003;52890;52.490;4.976;2024-01-10T00:26:35;17;16;
66111;PMS7003;52890;52.490;4.976;2024-01-10T00:27:35;24;17;
66111;PMS7003;52890;52.490;4.976;2024-01-10T00:28:35;16;24;
66111;PMS7003;52890;52.490;4.976;2024-01-10T00:29:35;13;16;
66111;PMS7003;52890;52.490;4.976;2024-01-10T00:30:35;17;13;
66111;PMS7003;52890;52.490;4.976;2024-01-10T00:31:38;17;17;
66111;PMS7003;52890;52.490;4.976;2024-01-10T00:32:35;21;17;
66111;PMS7003;52890;52.490;4.976;2024-01-10T00:33:35;14;23;
66111;PMS7003;52890;52.490;4.976;2024-01-10T00:34:35;13;14;
66111;PMS7003;52890;52.490;4.976;2024-01-10T00:35:38;16;13;
66111;PMS7003;52890;52.490;4.976;2024-01-10T00:36:35;11;16;
66111;PMS7003;52890;52.490;4.976;2024-01-10T00:37:35;8;11;
66111;PMS7003;52890;52.490;4.976;2024-01-10T00:38:36;16;8;
66111;PMS7003;52890;52.490;4.976;2024-01-10T00:39:35;9;16;
66111;PMS7003;52890;52.490;4.976;2024-01-10T00:40:35;9;9;
66111;PMS7003;52890;52.490;4.976;2024-01-10T00:41:35;12;9;
66111;PMS7003;52890;52.490;4.976;2024-01-10T00:42:35;12;12;
66111;PMS7003;52890;52.490;4.976;2024-01-10T00:43:35;8;15;
66111;PMS7003;52890;52.490;4.976;2024-01-10T00:44:35;7;11;
66111;PMS7003;52890;52.490;4.976;2024-01-10T00:45:35;11;7;
66111;PMS7003;52890;52.490;4.976;2024-01-10T00:46:35;11;11;
66111;PMS7003;52890;52.490;4.976;2024-01-10T00:47:35;10;11;
66111;PMS7003;52890;52.490;4.976;2024-01-10T00:48:35;16;10;
66111;PMS7003;52890;52.490;4.976;2024-01-10T00:49:35;8;18;
66111;PMS7003;52890;52.490;4.976;2024-01-10T00:50:35;8;8;
66111;PMS7003;52890;52.490;4.976;2024-01-10T00:51:35;8;8;
66111;PMS7003;52890;52.490;4.976;2024-01-10T00:52:35;13;8;
66111;PMS7003;52890;52.490;4.976;2024-01-10T00:53:38;9;13;
66111;PMS7003;52890;52.490;4.976;2024-01-10T00:54:35;9;9;
66111;PMS7003;52890;52.490;4.976;2024-01-10T00:55:35;8;9;
66111;PMS7003;52890;52.490;4.976;2024-01-10T00:56:38;4;8;
66111;PMS7003;52890;52.490;4.976;2024-01-10T00:57:35;11;7;
66111;PMS7003;52890;52.490;4.976;2024-01-10T00:58:38;7;11;
66111;PMS7003;52890;52.490;4.976;2024-01-10T00:59:35;10;7;
66111;PMS7003;52890;52.490;4.976;2024-01-10T01:00:35;8;10;
66111;PMS7003;52890;52.490;4.976;2024-01-10T01:01:35;8;8;
66111;PMS7003;52890;52.490;4.976;2024-01-10T01:02:35;13;10;
66111;PMS7003;52890;52.490;4.976;2024-01-10T01:03:35;4;17;
66111;PMS7003;52890;52.490;4.976;2024-01-10T01:04:35;9;7;
66111;PMS7003;52890;52.490;4.976;2024-01-10T01:05:35;10;9;
66111;PMS7003;52890;52.490;4.976;2024-01-10T01:06:35;9;18;
66111;PMS7003;52890;52.490;4.976;2024-01-10T01:07:35;4;11;
66111;PMS7003;52890;52.490;4.976;2024-01-10T01:08:35;7;4;
66111;PMS7003;52890;52.490;4.976;2024-01-10T01:09:35;9;7;
66111;PMS7003;52890;52.490;4.976;2024-01-10T01:10:35;8;12;
66111;PMS7003;52890;52.490;4.976;2024-01-10T01:11:35;12;10;
66111;PMS7003;52890;52.490;4.976;2024-01-10T01:12:35;9;12;
66111;PMS7003;52890;52.490;4.976;2024-01-10T01:13:35;14;11;
66111;PMS7003;52890;52.490;4.976;2024-01-10T01:14:35;14;14;
66111;PMS7003;52890;52.490;4.976;2024-01-10T01:15:35;10;14;
66111;PMS7003;52890;52.490;4.976;2024-01-10T01:16:35;6;13;
66111;PMS7003;52890;52.490;4.976;2024-01-10T01:17:35;11;6;
66111;PMS7003;52890;52.490;4.976;2024-01-10T01:18:35;9;11;
66111;PMS7003;52890;52.490;4.976;2024-01-10T01:19:38;7;9;
66111;PMS7003;52890;52.490;4.976;2024-01-10T01:20:35;6;9;
66111;PMS7003;52890;52.490;4.976;2024-01-10T01:21:35;15;6;
66111;PMS7003;52890;52.490;4.976;2024-01-10T01:22:35;8;15;
66111;PMS7003;52890;52.490;4.976;2024-01-10T01:23:35;11;8;
66111;PMS7003;52890;52.490;4.976;2024-01-10T01:24:35;10;11;
66111;PMS7003;52890;52.490;4.976;2024-01-10T01:25:35;3;13;
66111;PMS7003;52890;52.490;4.976;2024-01-10T01:26:35;9;3;
66111;PMS7003;52890;52.490;4.976;2024-01-10T01:27:35;8;9;
66111;PMS7003;52890;52.490;4.976;2024-01-10T01:28:35;12;10;
66111;PMS7003;52890;52.490;4.976;2024-01-10T01:29:35;11;12;
66111;PMS7003;52890;52.490;4.976;2024-01-10T01:30:35;7;14;
66111;PMS7003;52890;52.490;4.976;2024-01-10T01:31:35;9;7;
66111;PMS7003;52890;52.490;4.976;2024-01-10T01:32:35;8;9;
66111;PMS7003;52890;52.490;4.976;2024-01-10T01:33:35;5;8;
66111;PMS7003;52890;52.490;4.976;2024-01-10T01:34:35;7;5;
66111;PMS7003;52890;52.490;4.976;2024-01-10T01:35:35;8;7;
66111;PMS7003;52890;52.490;4.976;2024-01-10T01:36:35;8;10;
66111;PMS7003;52890;52.490;4.976;2024-01-10T01:37:35;11;8;
66111;PMS7003;52890;52.490;4.976;2024-01-10T01:38:35;12;11;
66111;PMS7003;52890;52.490;4.976;2024-01-10T01:39:35;13;12;
66111;PMS7003;52890;52.490;4.976;2024-01-10T01:40:35;11;13;
66111;PMS7003;52890;52.490;4.976;2024-01-10T01:41:35;7;11;
66111;PMS7003;52890;52.490;4.976;2024-01-10T01:42:38;9;7;
66111;PMS7003;52890;52.490;4.976;2024-01-10T01:43:35;13;9;
66111;PMS7003;52890;52.490;4.976;2024-01-10T01:44:35;7;13;
66111;PMS7003;52890;52.490;4.976;2024-01-10T01:45:35;12;7;
66111;PMS7003;52890;52.490;4.976;2024-01-10T01:46:35;9;12;
66111;PMS7003;52890;52.490;4.976;2024-01-10T01:47:35;10;12;
66111;PMS7003;52890;52.490;4.976;2024-01-10T01:48:35;9;12;
66111;PMS7003;52890;52.490;4.976;2024-01-10T01:49:35;6;9;
66111;PMS7003;52890;52.490;4.976;2024-01-10T01:50:35;11;6;
66111;PMS7003;52890;52.490;4.976;2024-01-10T01:51:35;11;11;
66111;PMS7003;52890;52.490;4.976;2024-01-10T01:52:35;9;14;
66111;PMS7003;52890;52.490;4.976;2024-01-10T01:53:35;8;9;
66111;PMS7003;52890;52.490;4.976;2024-01-10T01:54:35;12;8;
66111;PMS7003;52890;52.490;4.976;2024-01-10T01:55:35;7;12;
66111;PMS7003;52890;52.490;4.976;2024-01-10T01:56:35;11;7;
66111;PMS7003;52890;52.490;4.976;2024-01-10T01:57:35;3;11;
66111;PMS7003;52890;52.490;4.976;2024-01-10T01:58:36;9;3;
66111;PMS7003;52890;52.490;4.976;2024-01-10T01:59:35;5;9;
66111;PMS7003;52890;52.490;4.976;2024-01-10T02:00:35;9;7;
66111;PMS7003;52890;52.490;4.976;2024-01-10T02:01:35;7;12;
66111;PMS7003;52890;52.490;4.976;2024-01-10T02:02:35;9;7;
66111;PMS7003;52890;52.490;4.976;2024-01-10T02:03:35;9;12;
66111;PMS7003;52890;52.490;4.976;2024-01-10T02:04:35;8;12;
66111;PMS7003;52890;52.490;4.976;2024-01-10T02:05:35;9;8;
66111;PMS7003;52890;52.490;4.976;2024-01-10T02:06:35;11;9;
66111;PMS7003;52890;52.490;4.976;2024-01-10T02:07:35;7;11;
66111;PMS7003;52890;52.490;4.976;2024-01-10T02:08:35;9;7;
66111;PMS7003;52890;52.490;4.976;2024-01-10T02:09:35;6;9;
66111;PMS7003;52890;52.490;4.976;2024-01-10T02:10:35;10;6;
66111;PMS7003;52890;52.490;4.976;2024-01-10T02:11:35;9;13;
66111;PMS7003;52890;52.490;4.976;2024-01-10T02:12:35;9;9;
66111;PMS7003;52890;52.490;4.976;2024-01-10T02:13:35;11;9;
66111;PMS7003;52890;52.490;4.976;2024-01-10T02:14:35;6;14;
66111;PMS7003;52890;52.490;4.976;2024-01-10T02:15:35;10;6;
66111;PMS7003;52890;52.490;4.976;2024-01-10T02:16:35;7;12;
66111;PMS7003;52890;52.490;4.976;2024-01-10T02:17:35;5;12;
66111;PMS7003;52890;52.490;4.976;2024-01-10T02:18:35;9;8;
66111;PMS7003;52890;52.490;4.976;2024-01-10T02:19:35;9;9;
66111;PMS7003;52890;52.490;4.976;2024-01-10T02:20:35;8;11;
66111;PMS7003;52890;52.490;4.976;2024-01-10T02:21:35;7;8;
66111;PMS7003;52890;52.490;4.976;2024-01-10T02:22:35;11;10;
66111;PMS7003;52890;52.490;4.976;2024-01-10T02:23:35;6;11;
66111;PMS7003;52890;52.490;4.976;2024-01-10T02:24:35;5;9;
66111;PMS7003;52890;52.490;4.976;2024-01-10T02:25:38;7;5;
66111;PMS7003;52890;52.490;4.976;2024-01-10T02:26:35;10;7;
66111;PMS7003;52890;52.490;4.976;2024-01-10T02:27:35;8;10;
66111;PMS7003;52890;52.490;4.976;2024-01-10T02:28:35;12;8;
66111;PMS7003;52890;52.490;4.976;2024-01-10T02:29:35;11;15;
66111;PMS7003;52890;52.490;4.976;2024-01-10T02:30:35;6;11;
66111;PMS7003;52890;52.490;4.976;2024-01-10T02:31:35;5;6;
66111;PMS7003;52890;52.490;4.976;2024-01-10T02:32:35;5;5;
66111;PMS7003;52890;52.490;4.976;2024-01-10T02:33:35;4;5;
66111;PMS7003;52890;52.490;4.976;2024-01-10T02:34:35;8;4;
66111;PMS7003;52890;52.490;4.976;2024-01-10T02:35:35;2;8;
66111;PMS7003;52890;52.490;4.976;2024-01-10T02:36:35;13;2;
66111;PMS7003;52890;52.490;4.976;2024-01-10T02:37:35;8;13;
66111;PMS7003;52890;52.490;4.976;2024-01-10T02:38:35;8;8;
66111;PMS7003;52890;52.490;4.976;2024-01-10T02:39:35;12;10;
66111;PMS7003;52890;52.490;4.976;2024-01-10T02:40:35;7;12;
66111;PMS7003;52890;52.490;4.976;2024-01-10T02:41:35;11;7;
66111;PMS7003;52890;52.490;4.976;2024-01-10T02:42:35;8;16;
66111;PMS7003;52890;52.490;4.976;2024-01-10T02:43:38;13;10;
66111;PMS7003;52890;52.490;4.976;2024-01-10T02:44:35;15;15;
66111;PMS7003;52890;52.490;4.976;2024-01-10T02:45:35;8;15;
66111;PMS7003;52890;52.490;4.976;2024-01-10T02:46:35;5;8;
66111;PMS7003;52890;52.490;4.976;2024-01-10T02:47:35;10;5;
66111;PMS7003;52890;52.490;4.976;2024-01-10T02:48:35;12;10;
66111;PMS7003;52890;52.490;4.976;2024-01-10T02:49:35;7;15;
66111;PMS7003;52890;52.490;4.976;2024-01-10T02:50:35;8;9;
66111;PMS7003;52890;52.490;4.976;2024-01-10T02:51:35;7;8;
66111;PMS7003;52890;52.490;4.976;2024-01-10T02:52:38;11;7;
66111;PMS7003;52890;52.490;4.976;2024-01-10T02:53:35;15;11;
66111;PMS7003;52890;52.490;4.976;2024-01-10T02:54:35;7;18;
66111;PMS7003;52890;52.490;4.976;2024-01-10T02:55:35;8;7;
66111;PMS7003;52890;52.490;4.976;2024-01-10T02:56:35;4;8;
66111;PMS7003;52890;52.490;4.976;2024-01-10T02:57:35;8;7;
66111;PMS7003;52890;52.490;4.976;2024-01-10T02:58:35;10;11;
66111;PMS7003;52890;52.490;4.976;2024-01-10T02:59:35;8;10;
66111;PMS7003;52890;52.490;4.976;2024-01-10T03:00:35;10;8;
66111;PMS7003;52890;52.490;4.976;2024-01-10T03:01:35;10;10;
66111;PMS7003;52890;52.490;4.976;2024-01-10T03:02:35;11;10;
66111;PMS7003;52890;52.490;4.976;2024-01-10T03:03:35;10;11;
66111;PMS7003;52890;52.490;4.976;2024-01-10T03:04:35;13;10;
66111;PMS7003;52890;52.490;4.976;2024-01-10T03:05:35;6;13;
66111;PMS7003;52890;52.490;4.976;2024-01-10T03:06:35;10;9;
66111;PMS7003;52890;52.490;4.976;2024-01-10T03:07:35;6;10;
66111;PMS7003;52890;52.490;4.976;2024-01-10T03:08:35;7;6;
66111;PMS7003;52890;52.490;4.976;2024-01-10T03:09:35;4;7;
66111;PMS7003;52890;52.490;4.976;2024-01-10T03:10:35;5;4;
66111;PMS7003;52890;52.490;4.976;2024-01-10T03:11:35;7;5;
66111;PMS7003;52890;52.490;4.976;2024-01-10T03:12:35;6;7;
66111;PMS7003;52890;52.490;4.976;2024-01-10T03:13:35;3;6;
66111;PMS7003;52890;52.490;4.976;2024-01-10T03:14:35;7;3;
66111;PMS7003;52890;52.490;4.976;2024-01-10T03:15:35;11;7;
66111;PMS7003;52890;52.490;4.976;2024-01-10T03:16:35;5;11;
66111;PMS7003;52890;52.490;4.976;2024-01-10T03:17:35;7;5;
66111;PMS7003;52890;52.490;4.976;2024-01-10T03:18:35;8;7;
66111;PMS7003;52890;52.490;4.976;2024-01-10T03:19:35;11;8;
66111;PMS7003;52890;52.490;4.976;2024-01-10T03:20:35;4;11;
66111;PMS7003;52890;52.490;4.976;2024-01-10T03:21:35;9;4;
66111;PMS7003;52890;52.490;4.976;2024-01-10T03:22:38;7;12;
66111;PMS7003;52890;52.490;4.976;2024-01-10T03:23:35;7;7;
66111;PMS7003;52890;52.490;4.976;2024-01-10T03:24:35;4;11;
66111;PMS7003;52890;52.490;4.976;2024-01-10T03:25:40;10;4;
66111;PMS7003;52890;52.490;4.976;2024-01-10T03:26:35;9;10;
66111;PMS7003;52890;52.490;4.976;2024-01-10T03:27:35;11;9;
66111;PMS7003;52890;52.490;4.976;2024-01-10T03:28:35;7;11;
66111;PMS7003;52890;52.490;4.976;2024-01-10T03:29:35;8;7;
66111;PMS7003;52890;52.490;4.976;2024-01-10T03:30:35;6;8;
66111;PMS7003;52890;52.490;4.976;2024-01-10T03:31:35;5;6;
66111;PMS7003;52890;52.490;4.976;2024-01-10T03:32:35;8;5;
66111;PMS7003;52890;52.490;4.976;2024-01-10T03:33:35;5;11;
66111;PMS7003;52890;52.490;4.976;2024-01-10T03:34:35;11;5;
66111;PMS7003;52890;52.490;4.976;2024-01-10T03:35:35;7;11;
66111;PMS7003;52890;52.490;4.976;2024-01-10T03:36:35;9;7;
66111;PMS7003;52890;52.490;4.976;2024-01-10T03:37:35;12;9;
66111;PMS7003;52890;52.490;4.976;2024-01-10T03:38:35;8;12;
66111;PMS7003;52890;52.490;4.976;2024-01-10T03:39:35;8;8;
66111;PMS7003;52890;52.490;4.976;2024-01-10T03:40:35;7;10;
66111;PMS7003;52890;52.490;4.976;2024-01-10T03:41:35;12;7;
66111;PMS7003;52890;52.490;4.976;2024-01-10T03:42:35;7;15;
66111;PMS7003;52890;52.490;4.976;2024-01-10T03:43:35;9;7;
66111;PMS7003;52890;52.490;4.976;2024-01-10T03:44:35;6;9;
66111;PMS7003;52890;52.490;4.976;2024-01-10T03:45:35;12;6;
66111;PMS7003;52890;52.490;4.976;2024-01-10T03:46:38;8;14;
66111;PMS7003;52890;52.490;4.976;2024-01-10T03:47:35;7;8;
66111;PMS7003;52890;52.490;4.976;2024-01-10T03:48:35;12;10;
66111;PMS7003;52890;52.490;4.976;2024-01-10T03:49:35;8;12;
66111;PMS7003;52890;52.490;4.976;2024-01-10T03:50:38;8;8;
66111;PMS7003;52890;52.490;4.976;2024-01-10T03:51:35;11;8;
66111;PMS7003;52890;52.490;4.976;2024-01-10T03:52:35;9;13;
66111;PMS7003;52890;52.490;4.976;2024-01-10T03:53:35;10;12;
66111;PMS7003;52890;52.490;4.976;2024-01-10T03:54:35;12;10;
66111;PMS7003;52890;52.490;4.976;2024-01-10T03:55:35;12;12;
66111;PMS7003;52890;52.490;4.976;2024-01-10T03:56:35;4;15;
66111;PMS7003;52890;52.490;4.976;2024-01-10T03:57:35;8;4;
66111;PMS7003;52890;52.490;4.976;2024-01-10T03:58:35;7;8;
66111;PMS7003;52890;52.490;4.976;2024-01-10T03:59:35;5;7;
66111;PMS7003;52890;52.490;4.976;2024-01-10T04:00:35;12;5;
66111;PMS7003;52890;52.490;4.976;2024-01-10T04:01:35;6;14;
66111;PMS7003;52890;52.490;4.976;2024-01-10T04:02:36;4;9;
66111;PMS7003;52890;52.490;4.976;2024-01-10T04:03:35;5;4;
66111;PMS7003;52890;52.490;4.976;2024-01-10T04:04:36;5;5;
66111;PMS7003;52890;52.490;4.976;2024-01-10T04:05:35;5;5;
66111;PMS7003;52890;52.490;4.976;2024-01-10T04:06:35;6;5;
66111;PMS7003;52890;52.490;4.976;2024-01-10T04:07:36;6;6;
66111;PMS7003;52890;52.490;4.976;2024-01-10T04:08:35;4;6;
66111;PMS7003;52890;52.490;4.976;2024-01-10T04:09:35;9;7;
66111;PMS7003;52890;52.490;4.976;2024-01-10T04:10:35;8;17;
66111;PMS7003;52890;52.490;4.976;2024-01-10T04:11:35;9;8;
66111;PMS7003;52890;52.490;4.976;2024-01-10T04:12:35;6;9;
66111;PMS7003;52890;52.490;4.976;2024-01-10T04:13:35;8;6;
66111;PMS7003;52890;52.490;4.976;2024-01-10T04:14:35;6;8;
66111;PMS7003;52890;52.490;4.976;2024-01-10T04:15:35;8;6;
66111;PMS7003;52890;52.490;4.976;2024-01-10T04:16:35;6;8;
66111;PMS7003;52890;52.490;4.976;2024-01-10T04:17:35;5;6;
66111;PMS7003;52890;52.490;4.976;2024-01-10T04:18:38;9;5;
66111;PMS7003;52890;52.490;4.976;2024-01-10T04:19:35;7;9;
66111;PMS7003;52890;52.490;4.976;2024-01-10T04:20:35;11;7;
66111;PMS7003;52890;52.490;4.976;2024-01-10T04:21:38;7;11;
66111;PMS7003;52890;52.490;4.976;2024-01-10T04:22:35;12;7;
66111;PMS7003;52890;52.490;4.976;2024-01-10T04:23:35;8;12;
66111;PMS7003;52890;52.490;4.976;2024-01-10T04:24:35;6;8;
66111;PMS7003;52890;52.490;4.976;2024-01-10T04:25:35;8;6;
66111;PMS7003;52890;52.490;4.976;2024-01-10T04:26:35;7;8;
66111;PMS7003;52890;52.490;4.976;2024-01-10T04:27:35;8;9;
66111;PMS7003;52890;52.490;4.976;2024-01-10T04:28:35;7;8;
66111;PMS7003;52890;52.490;4.976;2024-01-10T04:29:35;3;7;
66111;PMS7003;52890;52.490;4.976;2024-01-10T04:30:35;7;3;
66111;PMS7003;52890;52.490;4.976;2024-01-10T04:31:35;10;7;
66111;PMS7003;52890;52.490;4.976;2024-01-10T04:32:35;5;13;
66111;PMS7003;52890;52.490;4.976;2024-01-10T04:33:35;9;8;
66111;PMS7003;52890;52.490;4.976;2024-01-10T04:34:35;6;9;
66111;PMS7003;52890;52.490;4.976;2024-01-10T04:35:35;8;6;
66111;PMS7003;52890;52.490;4.976;2024-01-10T04:36:35;7;8;
66111;PMS7003;52890;52.490;4.976;2024-01-10T04:37:35;8;7;
66111;PMS7003;52890;52.490;4.976;2024-01-10T04:38:35;6;10;
66111;PMS7003;52890;52.490;4.976;2024-01-10T04:39:35;9;6;
66111;PMS7003;52890;52.490;4.976;2024-01-10T04:40:35;3;9;
66111;PMS7003;52890;52.490;4.976;2024-01-10T04:41:35;8;3;
66111;PMS7003;52890;52.490;4.976;2024-01-10T04:42:35;7;8;
66111;PMS7003;52890;52.490;4.976;2024-01-10T04:43:35;6;7;
66111;PMS7003;52890;52.490;4.976;2024-01-10T04:44:35;10;6;
66111;PMS7003;52890;52.490;4.976;2024-01-10T04:45:35;8;10;
66111;PMS7003;52890;52.490;4.976;2024-01-10T04:46:35;8;11;
66111;PMS7003;52890;52.490;4.976;2024-01-10T04:47:38;8;13;
66111;PMS7003;52890;52.490;4.976;2024-01-10T04:48:35;6;11;
66111;PMS7003;52890;52.490;4.976;2024-01-10T04:49:35;5;8;
66111;PMS7003;52890;52.490;4.976;2024-01-10T04:50:35;7;5;
66111;PMS7003;52890;52.490;4.976;2024-01-10T04:51:35;10;9;
66111;PMS7003;52890;52.490;4.976;2024-01-10T04:52:35;10;10;
66111;PMS7003;52890;52.490;4.976;2024-01-10T04:53:36;11;10;
66111;PMS7003;52890;52.490;4.976;2024-01-10T04:54:35;7;11;
66111;PMS7003;52890;52.490;4.976;2024-01-10T04:55:35;7;7;
66111;PMS7003;52890;52.490;4.976;2024-01-10T04:56:35;6;7;
66111;PMS7003;52890;52.490;4.976;2024-01-10T04:57:35;10;9;
66111;PMS7003;52890;52.490;4.976;2024-01-10T04:58:35;8;12;
66111;PMS7003;52890;52.490;4.976;2024-01-10T04:59:35;7;8;
66111;PMS7003;52890;52.490;4.976;2024-01-10T05:00:35;8;7;
66111;PMS7003;52890;52.490;4.976;2024-01-10T05:01:35;7;8;
66111;PMS7003;52890;52.490;4.976;2024-01-10T05:02:35;10;7;
66111;PMS7003;52890;52.490;4.976;2024-01-10T05:03:35;6;15;
66111;PMS7003;52890;52.490;4.976;2024-01-10T05:04:35;6;6;
66111;PMS7003;52890;52.490;4.976;2024-01-10T05:05:35;9;6;
66111;PMS7003;52890;52.490;4.976;2024-01-10T05:06:35;5;14;
66111;PMS7003;52890;52.490;4.976;2024-01-10T05:07:35;8;5;
66111;PMS7003;52890;52.490;4.976;2024-01-10T05:08:35;5;8;
66111;PMS7003;52890;52.490;4.976;2024-01-10T05:09:35;8;5;
66111;PMS7003;52890;52.490;4.976;2024-01-10T05:10:35;5;8;
66111;PMS7003;52890;52.490;4.976;2024-01-10T05:11:35;3;5;
66111;PMS7003;52890;52.490;4.976;2024-01-10T05:12:35;8;6;
66111;PMS7003;52890;52.490;4.976;2024-01-10T05:13:38;5;8;
66111;PMS7003;52890;52.490;4.976;2024-01-10T05:14:35;7;8;
66111;PMS7003;52890;52.490;4.976;2024-01-10T05:15:35;4;7;
66111;PMS7003;52890;52.490;4.976;2024-01-10T05:16:35;9;7;
66111;PMS7003;52890;52.490;4.976;2024-01-10T05:17:35;8;9;
66111;PMS7003;52890;52.490;4.976;2024-01-10T05:18:35;5;8;
66111;PMS7003;52890;52.490;4.976;2024-01-10T05:19:35;7;5;
66111;PMS7003;52890;52.490;4.976;2024-01-10T05:20:35;7;10;
66111;PMS7003;52890;52.490;4.976;2024-01-10T05:21:35;8;10;
66111;PMS7003;52890;52.490;4.976;2024-01-10T05:22:35;10;8;
66111;PMS7003;52890;52.490;4.976;2024-01-10T05:23:35;7;15;
66111;PMS7003;52890;52.490;4.976;2024-01-10T05:24:35;6;7;
66111;PMS7003;52890;52.490;4.976;2024-01-10T05:25:35;5;17;
66111;PMS7003;52890;52.490;4.976;2024-01-10T05:26:35;15;5;
66111;PMS7003;52890;52.490;4.976;2024-01-10T05:27:35;7;15;
66111;PMS7003;52890;52.490;4.976;2024-01-10T05:28:35;4;7;
66111;PMS7003;52890;52.490;4.976;2024-01-10T05:29:35;7;4;
66111;PMS7003;52890;52.490;4.976;2024-01-10T05:30:35;8;7;
66111;PMS7003;52890;52.490;4.976;2024-01-10T05:31:35;4;8;
66111;PMS7003;52890;52.490;4.976;2024-01-10T05:32:35;7;4;
66111;PMS7003;52890;52.490;4.976;2024-01-10T05:33:35;7;7;
66111;PMS7003;52890;52.490;4.976;2024-01-10T05:34:35;5;9;
66111;PMS7003;52890;52.490;4.976;2024-01-10T05:35:35;6;5;
66111;PMS7003;52890;52.490;4.976;2024-01-10T05:36:35;6;8;
66111;PMS7003;52890;52.490;4.976;2024-01-10T05:37:35;5;9;
66111;PMS7003;52890;52.490;4.976;2024-01-10T05:38:35;4;5;
66111;PMS7003;52890;52.490;4.976;2024-01-10T05:39:35;6;4;
66111;PMS7003;52890;52.490;4.976;2024-01-10T05:40:35;9;6;
66111;PMS7003;52890;52.490;4.976;2024-01-10T05:41:35;5;11;
66111;PMS7003;52890;52.490;4.976;2024-01-10T05:42:35;7;8;
66111;PMS7003;52890;52.490;4.976;2024-01-10T05:43:35;6;7;
66111;PMS7003;52890;52.490;4.976;2024-01-10T05:44:35;6;14;
66111;PMS7003;52890;52.490;4.976;2024-01-10T05:45:35;9;8;
66111;PMS7003;52890;52.490;4.976;2024-01-10T05:46:35;9;9;
66111;PMS7003;52890;52.490;4.976;2024-01-10T05:47:35;7;9;
66111;PMS7003;52890;52.490;4.976;2024-01-10T05:48:35;8;7;
66111;PMS7003;52890;52.490;4.976;2024-01-10T05:49:35;6;8;
66111;PMS7003;52890;52.490;4.976;2024-01-10T05:50:35;5;6;
66111;PMS7003;52890;52.490;4.976;2024-01-10T05:51:35;6;5;
66111;PMS7003;52890;52.490;4.976;2024-01-10T05:52:35;9;6;
66111;PMS7003;52890;52.490;4.976;2024-01-10T05:53:35;7;9;
66111;PMS7003;52890;52.490;4.976;2024-01-10T05:54:35;7;7;
66111;PMS7003;52890;52.490;4.976;2024-01-10T05:55:35;6;10;
66111;PMS7003;52890;52.490;4.976;2024-01-10T05:56:35;6;6;
66111;PMS7003;52890;52.490;4.976;2024-01-10T05:57:35;6;9;
66111;PMS7003;52890;52.490;4.976;2024-01-10T05:58:35;2;6;
66111;PMS7003;52890;52.490;4.976;2024-01-10T05:59:35;8;2;
66111;PMS7003;52890;52.490;4.976;2024-01-10T06:00:35;8;8;
66111;PMS7003;52890;52.490;4.976;2024-01-10T06:01:35;8;8;
66111;PMS7003;52890;52.490;4.976;2024-01-10T06:02:35;8;8;
66111;PMS7003;52890;52.490;4.976;2024-01-10T06:03:35;7;8;
66111;PMS7003;52890;52.490;4.976;2024-01-10T06:04:35;4;7;
66111;PMS7003;52890;52.490;4.976;2024-01-10T06:05:35;7;4;
66111;PMS7003;52890;52.490;4.976;2024-01-10T06:06:35;9;7;
66111;PMS7003;52890;52.490;4.976;2024-01-10T06:07:35;11;9;
66111;PMS7003;52890;52.490;4.976;2024-01-10T06:08:35;7;14;
66111;PMS7003;52890;52.490;4.976;2024-01-10T06:09:35;8;10;
66111;PMS7003;52890;52.490;4.976;2024-01-10T06:10:35;8;8;
66111;PMS7003;52890;52.490;4.976;2024-01-10T06:11:39;7;10;
66111;PMS7003;52890;52.490;4.976;2024-01-10T06:12:35;9;7;
66111;PMS7003;52890;52.490;4.976;2024-01-10T06:13:35;5;9;
66111;PMS7003;52890;52.490;4.976;2024-01-10T06:14:35;6;5;
66111;PMS7003;52890;52.490;4.976;2024-01-10T06:15:38;5;9;
66111;PMS7003;52890;52.490;4.976;2024-01-10T06:16:35;8;5;
66111;PMS7003;52890;52.490;4.976;2024-01-10T06:17:35;4;11;
66111;PMS7003;52890;52.490;4.976;2024-01-10T06:18:35;7;4;
66111;PMS7003;52890;52.490;4.976;2024-01-10T06:19:35;8;10;
66111;PMS7003;52890;52.490;4.976;2024-01-10T06:20:35;10;8;
66111;PMS7003;52890;52.490;4.976;2024-01-10T06:21:35;6;10;
66111;PMS7003;52890;52.490;4.976;2024-01-10T06:22:35;7;6;
66111;PMS7003;52890;52.490;4.976;2024-01-10T06:23:35;5;7;
66111;PMS7003;52890;52.490;4.976;2024-01-10T06:24:35;6;5;
66111;PMS7003;52890;52.490;4.976;2024-01-10T06:25:35;7;6;
66111;PMS7003;52890;52.490;4.976;2024-01-10T06:26:35;8;10;
66111;PMS7003;52890;52.490;4.976;2024-01-10T06:27:35;9;11;
66111;PMS7003;52890;52.490;4.976;2024-01-10T06:28:35;6;9;
66111;PMS7003;52890;52.490;4.976;2024-01-10T06:29:35;10;6;
66111;PMS7003;52890;52.490;4.976;2024-01-10T06:30:35;6;10;
66111;PMS7003;52890;52.490;4.976;2024-01-10T06:31:35;7;6;
66111;PMS7003;52890;52.490;4.976;2024-01-10T06:32:35;8;7;
66111;PMS7003;52890;52.490;4.976;2024-01-10T06:33:35;3;8;
66111;PMS7003;52890;52.490;4.976;2024-01-10T06:34:35;7;3;
66111;PMS7003;52890;52.490;4.976;2024-01-10T06:35:35;6;7;
66111;PMS7003;52890;52.490;4.976;2024-01-10T06:36:35;9;6;
66111;PMS7003;52890;52.490;4.976;2024-01-10T06:37:35;5;9;
66111;PMS7003;52890;52.490;4.976;2024-01-10T06:38:35;6;5;
66111;PMS7003;52890;52.490;4.976;2024-01-10T06:39:35;4;6;
66111;PMS7003;52890;52.490;4.976;2024-01-10T06:40:35;7;4;
66111;PMS7003;52890;52.490;4.976;2024-01-10T06:41:35;6;9;
66111;PMS7003;52890;52.490;4.976;2024-01-10T06:42:38;6;8;
66111;PMS7003;52890;52.490;4.976;2024-01-10T06:43:35;7;6;
66111;PMS7003;52890;52.490;4.976;2024-01-10T06:44:35;4;7;
66111;PMS7003;52890;52.490;4.976;2024-01-10T06:45:35;7;4;
66111;PMS7003;52890;52.490;4.976;2024-01-10T06:46:35;8;7;